sensor_id;sensor_type;location;lat;lon;timestamp;P1;durP1;ratioP1;P2;durP2;ratioP2
49890;SDS011;35780;55.568;37.492;2023-04-15T00:01:54;5.65;;;1.40;;
49890;SDS011;35780;55.568;37.492;2023-04-15T00:04:22;5.32;;;1.45;;
49890;SDS011;35780;55.568;37.492;2023-04-15T00:06:51;2.15;;;0.80;;
49890;SDS011;35780;55.568;37.492;2023-04-15T00:09:17;5.60;;;1.25;;
49890;SDS011;35780;55.568;37.492;2023-04-15T00:11:43;14.45;;;1.27;;
49890;SDS011;35780;55.568;37.492;2023-04-15T00:14:11;3.13;;;1.63;;
49890;SDS011;35780;55.568;37.492;2023-04-15T00:16:37;1.90;;;0.90;;
49890;SDS011;35780;55.568;37.492;2023-04-15T00:19:02;3.20;;;1.35;;
49890;SDS011;35780;55.568;37.492;2023-04-15T00:21:29;7.38;;;1.50;;
49890;SDS011;35780;55.568;37.492;2023-04-15T00:23:55;4.55;;;1.75;;
49890;SDS011;35780;55.568;37.492;2023-04-15T00:26:20;3.08;;;1.08;;
49890;SDS011;35780;55.568;37.492;2023-04-15T00:28:46;2.67;;;1.50;;
49890;SDS011;35780;55.568;37.492;2023-04-15T00:31:11;3.10;;;1.40;;
49890;SDS011;35780;55.568;37.492;2023-04-15T00:33:37;3.58;;;1.48;;
49890;SDS011;35780;55.568;37.492;2023-04-15T00:36:05;3.10;;;1.17;;
49890;SDS011;35780;55.568;37.492;2023-04-15T00:38:31;2.10;;;1.15;;
49890;SDS011;35780;55.568;37.492;2023-04-15T00:40:56;1.25;;;0.77;;
49890;SDS011;35780;55.568;37.492;2023-04-15T00:43:22;2.33;;;1.02;;
49890;SDS011;35780;55.568;37.492;2023-04-15T00:45:47;9.23;;;1.50;;
49890;SDS011;35780;55.568;37.492;2023-04-15T00:48:14;2.55;;;0.98;;
49890;SDS011;35780;55.568;37.492;2023-04-15T00:50:40;3.10;;;1.30;;
49890;SDS011;35780;55.568;37.492;2023-04-15T00:53:05;4.25;;;1.60;;
49890;SDS011;35780;55.568;37.492;2023-04-15T00:55:31;3.63;;;1.02;;
49890;SDS011;35780;55.568;37.492;2023-04-15T00:57:56;2.53;;;1.27;;
49890;SDS011;35780;55.568;37.492;2023-04-15T01:00:22;2.63;;;1.35;;
49890;SDS011;35780;55.568;37.492;2023-04-15T01:02:48;2.97;;;1.42;;
49890;SDS011;35780;55.568;37.492;2023-04-15T01:05:14;3.00;;;1.50;;
49890;SDS011;35780;55.568;37.492;2023-04-15T01:07:41;2.08;;;0.98;;
49890;SDS011;35780;55.568;37.492;2023-04-15T01:10:07;3.30;;;1.15;;
49890;SDS011;35780;55.568;37.492;2023-04-15T01:12:33;3.45;;;1.20;;
49890;SDS011;35780;55.568;37.492;2023-04-15T01:15:00;2.85;;;1.50;;
49890;SDS011;35780;55.568;37.492;2023-04-15T01:17:26;4.05;;;1.10;;
49890;SDS011;35780;55.568;37.492;2023-04-15T01:19:52;1.65;;;0.85;;
49890;SDS011;35780;55.568;37.492;2023-04-15T01:22:21;1.40;;;0.90;;
49890;SDS011;35780;55.568;37.492;2023-04-15T01:24:51;2.10;;;1.27;;
49890;SDS011;35780;55.568;37.492;2023-04-15T01:27:21;2.60;;;1.05;;
49890;SDS011;35780;55.568;37.492;2023-04-15T01:29:46;4.13;;;1.50;;
49890;SDS011;35780;55.568;37.492;2023-04-15T01:32:12;6.03;;;1.80;;
49890;SDS011;35780;55.568;37.492;2023-04-15T01:34:56;3.03;;;1.15;;
49890;SDS011;35780;55.568;37.492;2023-04-15T01:37:40;7.03;;;1.42;;
49890;SDS011;35780;55.568;37.492;2023-04-15T01:40:06;2.72;;;1.30;;
49890;SDS011;35780;55.568;37.492;2023-04-15T01:42:34;1.58;;;1.13;;
49890;SDS011;35780;55.568;37.492;2023-04-15T01:45:02;4.03;;;1.50;;
49890;SDS011;35780;55.568;37.492;2023-04-15T01:47:29;3.85;;;2.33;;
49890;SDS011;35780;55.568;37.492;2023-04-15T01:49:55;3.15;;;1.50;;
49890;SDS011;35780;55.568;37.492;2023-04-15T01:52:22;6.35;;;1.17;;
49890;SDS011;35780;55.568;37.492;2023-04-15T01:54:49;3.33;;;1.67;;
49890;SDS011;35780;55.568;37.492;2023-04-15T01:57:16;1.15;;;0.82;;
49890;SDS011;35780;55.568;37.492;2023-04-15T01:59:43;3.95;;;1.23;;
49890;SDS011;35780;55.568;37.492;2023-04-15T02:02:10;2.97;;;1.05;;
49890;SDS011;35780;55.568;37.492;2023-04-15T02:04:37;2.33;;;1.30;;
49890;SDS011;35780;55.568;37.492;2023-04-15T02:07:04;3.03;;;1.50;;
49890;SDS011;35780;55.568;37.492;2023-04-15T02:09:31;4.22;;;1.45;;
49890;SDS011;35780;55.568;37.492;2023-04-15T02:11:58;3.28;;;1.52;;
49890;SDS011;35780;55.568;37.492;2023-04-15T02:14:26;3.80;;;1.42;;
49890;SDS011;35780;55.568;37.492;2023-04-15T02:16:52;3.47;;;1.30;;
49890;SDS011;35780;55.568;37.492;2023-04-15T02:19:19;2.75;;;1.02;;
49890;SDS011;35780;55.568;37.492;2023-04-15T02:21:46;8.77;;;1.60;;
49890;SDS011;35780;55.568;37.492;2023-04-15T02:24:13;4.13;;;1.48;;
49890;SDS011;35780;55.568;37.492;2023-04-15T02:26:40;3.58;;;1.60;;
49890;SDS011;35780;55.568;37.492;2023-04-15T02:29:06;2.03;;;1.30;;
49890;SDS011;35780;55.568;37.492;2023-04-15T02:31:33;3.40;;;1.30;;
49890;SDS011;35780;55.568;37.492;2023-04-15T02:34:05;1.92;;;1.10;;
49890;SDS011;35780;55.568;37.492;2023-04-15T02:36:32;1.77;;;1.13;;
49890;SDS011;35780;55.568;37.492;2023-04-15T02:38:59;5.70;;;2.80;;
49890;SDS011;35780;55.568;37.492;2023-04-15T02:41:27;4.25;;;1.38;;
49890;SDS011;35780;55.568;37.492;2023-04-15T02:43:55;3.33;;;1.70;;
49890;SDS011;35780;55.568;37.492;2023-04-15T02:46:22;2.28;;;0.82;;
49890;SDS011;35780;55.568;37.492;2023-04-15T02:48:49;5.55;;;1.73;;
49890;SDS011;35780;55.568;37.492;2023-04-15T02:51:16;3.63;;;1.58;;
49890;SDS011;35780;55.568;37.492;2023-04-15T02:53:45;2.65;;;1.70;;
49890;SDS011;35780;55.568;37.492;2023-04-15T02:56:14;5.60;;;1.50;;
49890;SDS011;35780;55.568;37.492;2023-04-15T02:58:42;5.30;;;1.70;;
49890;SDS011;35780;55.568;37.492;2023-04-15T03:01:10;4.43;;;1.67;;
49890;SDS011;35780;55.568;37.492;2023-04-15T03:03:37;2.22;;;1.50;;
49890;SDS011;35780;55.568;37.492;2023-04-15T03:06:04;3.88;;;1.85;;
49890;SDS011;35780;55.568;37.492;2023-04-15T03:08:30;1.92;;;0.93;;
49890;SDS011;35780;55.568;37.492;2023-04-15T03:10:57;3.80;;;1.45;;
49890;SDS011;35780;55.568;37.492;2023-04-15T03:13:26;3.65;;;1.67;;
49890;SDS011;35780;55.568;37.492;2023-04-15T03:15:52;4.20;;;1.60;;
49890;SDS011;35780;55.568;37.492;2023-04-15T03:18:20;1.67;;;0.95;;
49890;SDS011;35780;55.568;37.492;2023-04-15T03:20:46;2.58;;;1.25;;
49890;SDS011;35780;55.568;37.492;2023-04-15T03:23:13;2.17;;;1.40;;
49890;SDS011;35780;55.568;37.492;2023-04-15T03:25:40;3.35;;;1.65;;
49890;SDS011;35780;55.568;37.492;2023-04-15T03:28:07;5.75;;;1.98;;
49890;SDS011;35780;55.568;37.492;2023-04-15T03:30:34;4.72;;;1.45;;
49890;SDS011;35780;55.568;37.492;2023-04-15T03:33:00;5.47;;;1.90;;
49890;SDS011;35780;55.568;37.492;2023-04-15T03:35:27;2.50;;;1.30;;
49890;SDS011;35780;55.568;37.492;2023-04-15T03:37:54;6.78;;;1.70;;
49890;SDS011;35780;55.568;37.492;2023-04-15T03:40:21;4.45;;;1.75;;
49890;SDS011;35780;55.568;37.492;2023-04-15T03:42:48;3.13;;;1.38;;
49890;SDS011;35780;55.568;37.492;2023-04-15T03:45:15;4.05;;;1.50;;
49890;SDS011;35780;55.568;37.492;2023-04-15T03:47:41;8.98;;;1.98;;
49890;SDS011;35780;55.568;37.492;2023-04-15T03:50:08;4.20;;;1.65;;
49890;SDS011;35780;55.568;37.492;2023-04-15T03:52:35;2.63;;;1.30;;
49890;SDS011;35780;55.568;37.492;2023-04-15T03:55:02;9.82;;;2.05;;
49890;SDS011;35780;55.568;37.492;2023-04-15T03:57:29;7.93;;;1.52;;
49890;SDS011;35780;55.568;37.492;2023-04-15T03:59:56;6.45;;;1.50;;
49890;SDS011;35780;55.568;37.492;2023-04-15T04:02:23;6.30;;;2.03;;
49890;SDS011;35780;55.568;37.492;2023-04-15T04:04:49;5.78;;;1.90;;
49890;SDS011;35780;55.568;37.492;2023-04-15T04:07:16;3.10;;;1.65;;
49890;SDS011;35780;55.568;37.492;2023-04-15T04:09:43;2.58;;;1.25;;
49890;SDS011;35780;55.568;37.492;2023-04-15T04:12:11;4.05;;;1.88;;
49890;SDS011;35780;55.568;37.492;2023-04-15T04:14:37;2.47;;;1.50;;
49890;SDS011;35780;55.568;37.492;2023-04-15T04:17:04;6.45;;;1.70;;
49890;SDS011;35780;55.568;37.492;2023-04-15T04:19:31;2.03;;;1.15;;
49890;SDS011;35780;55.568;37.492;2023-04-15T04:21:58;6.07;;;2.08;;
49890;SDS011;35780;55.568;37.492;2023-04-15T04:24:24;6.38;;;1.70;;
49890;SDS011;35780;55.568;37.492;2023-04-15T04:26:51;5.38;;;1.45;;
49890;SDS011;35780;55.568;37.492;2023-04-15T04:29:18;5.65;;;2.17;;
49890;SDS011;35780;55.568;37.492;2023-04-15T04:31:45;7.88;;;2.33;;
49890;SDS011;35780;55.568;37.492;2023-04-15T04:34:14;5.32;;;2.15;;
49890;SDS011;35780;55.568;37.492;2023-04-15T04:36:41;4.65;;;2.05;;
49890;SDS011;35780;55.568;37.492;2023-04-15T04:39:08;4.53;;;1.90;;
49890;SDS011;35780;55.568;37.492;2023-04-15T04:41:34;4.75;;;2.05;;
49890;SDS011;35780;55.568;37.492;2023-04-15T04:44:01;5.78;;;1.95;;
49890;SDS011;35780;55.568;37.492;2023-04-15T04:46:28;5.25;;;1.90;;
49890;SDS011;35780;55.568;37.492;2023-04-15T04:48:55;4.45;;;1.98;;
49890;SDS011;35780;55.568;37.492;2023-04-15T04:51:22;4.85;;;1.85;;
49890;SDS011;35780;55.568;37.492;2023-04-15T04:53:49;2.47;;;1.48;;
49890;SDS011;35780;55.568;37.492;2023-04-15T04:56:15;3.10;;;1.90;;
49890;SDS011;35780;55.568;37.492;2023-04-15T04:58:42;4.63;;;2.20;;
49890;SDS011;35780;55.568;37.492;2023-04-15T05:01:09;3.08;;;1.35;;
49890;SDS011;35780;55.568;37.492;2023-04-15T05:03:35;3.25;;;1.63;;
49890;SDS011;35780;55.568;37.492;2023-04-15T05:06:03;5.07;;;1.67;;
49890;SDS011;35780;55.568;37.492;2023-04-15T05:08:32;8.18;;;2.33;;
49890;SDS011;35780;55.568;37.492;2023-04-15T05:10:59;6.15;;;2.45;;
49890;SDS011;35780;55.568;37.492;2023-04-15T05:13:26;4.60;;;1.92;;
49890;SDS011;35780;55.568;37.492;2023-04-15T05:15:52;5.05;;;2.20;;
49890;SDS011;35780;55.568;37.492;2023-04-15T05:18:19;7.47;;;2.20;;
49890;SDS011;35780;55.568;37.492;2023-04-15T05:20:46;8.23;;;2.28;;
49890;SDS011;35780;55.568;37.492;2023-04-15T05:23:15;5.50;;;2.10;;
49890;SDS011;35780;55.568;37.492;2023-04-15T05:25:42;11.25;;;2.42;;
49890;SDS011;35780;55.568;37.492;2023-04-15T05:28:09;6.78;;;2.00;;
49890;SDS011;35780;55.568;37.492;2023-04-15T05:30:36;4.40;;;1.65;;
49890;SDS011;35780;55.568;37.492;2023-04-15T05:33:03;5.57;;;1.75;;
49890;SDS011;35780;55.568;37.492;2023-04-15T05:35:30;5.35;;;2.10;;
49890;SDS011;35780;55.568;37.492;2023-04-15T05:37:57;3.75;;;1.67;;
49890;SDS011;35780;55.568;37.492;2023-04-15T05:40:23;5.30;;;1.95;;
49890;SDS011;35780;55.568;37.492;2023-04-15T05:42:50;3.35;;;1.40;;
49890;SDS011;35780;55.568;37.492;2023-04-15T05:45:17;5.35;;;2.00;;
49890;SDS011;35780;55.568;37.492;2023-04-15T05:47:44;7.10;;;1.95;;
49890;SDS011;35780;55.568;37.492;2023-04-15T05:50:10;5.75;;;1.70;;
49890;SDS011;35780;55.568;37.492;2023-04-15T05:52:37;6.38;;;1.85;;
49890;SDS011;35780;55.568;37.492;2023-04-15T05:55:04;9.00;;;2.53;;
49890;SDS011;35780;55.568;37.492;2023-04-15T05:57:31;6.85;;;2.55;;
49890;SDS011;35780;55.568;37.492;2023-04-15T05:59:58;7.32;;;1.83;;
49890;SDS011;35780;55.568;37.492;2023-04-15T06:02:25;3.78;;;2.03;;
49890;SDS011;35780;55.568;37.492;2023-04-15T06:04:53;9.43;;;2.88;;
49890;SDS011;35780;55.568;37.492;2023-04-15T06:07:19;5.13;;;2.10;;
49890;SDS011;35780;55.568;37.492;2023-04-15T06:09:46;10.38;;;2.30;;
49890;SDS011;35780;55.568;37.492;2023-04-15T06:12:13;6.18;;;2.35;;
49890;SDS011;35780;55.568;37.492;2023-04-15T06:14:40;11.43;;;2.80;;
49890;SDS011;35780;55.568;37.492;2023-04-15T06:17:07;10.38;;;2.80;;
49890;SDS011;35780;55.568;37.492;2023-04-15T06:19:34;5.75;;;2.22;;
49890;SDS011;35780;55.568;37.492;2023-04-15T06:22:04;6.47;;;2.35;;
49890;SDS011;35780;55.568;37.492;2023-04-15T06:24:32;5.00;;;1.88;;
49890;SDS011;35780;55.568;37.492;2023-04-15T06:26:59;10.57;;;2.20;;
49890;SDS011;35780;55.568;37.492;2023-04-15T06:29:27;2.25;;;1.10;;
49890;SDS011;35780;55.568;37.492;2023-04-15T06:31:54;5.22;;;1.75;;
49890;SDS011;35780;55.568;37.492;2023-04-15T06:34:22;8.07;;;2.20;;
49890;SDS011;35780;55.568;37.492;2023-04-15T06:36:48;8.23;;;2.13;;
49890;SDS011;35780;55.568;37.492;2023-04-15T06:39:15;6.07;;;2.13;;
49890;SDS011;35780;55.568;37.492;2023-04-15T06:41:42;11.00;;;2.08;;
49890;SDS011;35780;55.568;37.492;2023-04-15T06:44:09;4.60;;;1.80;;
49890;SDS011;35780;55.568;37.492;2023-04-15T06:46:35;4.28;;;1.88;;
49890;SDS011;35780;55.568;37.492;2023-04-15T06:49:02;8.90;;;1.85;;
49890;SDS011;35780;55.568;37.492;2023-04-15T06:51:29;17.33;;;1.80;;
49890;SDS011;35780;55.568;37.492;2023-04-15T06:53:56;9.00;;;2.20;;
49890;SDS011;35780;55.568;37.492;2023-04-15T06:56:23;6.05;;;1.88;;
49890;SDS011;35780;55.568;37.492;2023-04-15T06:58:50;3.85;;;1.60;;
49890;SDS011;35780;55.568;37.492;2023-04-15T07:01:17;4.43;;;2.10;;
49890;SDS011;35780;55.568;37.492;2023-04-15T07:03:44;7.80;;;2.92;;
49890;SDS011;35780;55.568;37.492;2023-04-15T07:06:10;3.40;;;1.90;;
49890;SDS011;35780;55.568;37.492;2023-04-15T07:08:38;11.93;;;2.17;;
49890;SDS011;35780;55.568;37.492;2023-04-15T07:11:05;9.32;;;2.33;;
49890;SDS011;35780;55.568;37.492;2023-04-15T07:13:32;10.52;;;2.08;;
49890;SDS011;35780;55.568;37.492;2023-04-15T07:15:59;10.95;;;2.60;;
49890;SDS011;35780;55.568;37.492;2023-04-15T07:18:26;4.70;;;1.90;;
49890;SDS011;35780;55.568;37.492;2023-04-15T07:20:53;6.10;;;2.65;;
49890;SDS011;35780;55.568;37.492;2023-04-15T07:23:20;8.20;;;2.40;;
49890;SDS011;35780;55.568;37.492;2023-04-15T07:25:46;8.23;;;2.63;;
49890;SDS011;35780;55.568;37.492;2023-04-15T07:28:13;7.13;;;2.20;;
49890;SDS011;35780;55.568;37.492;2023-04-15T07:30:40;10.00;;;2.17;;
49890;SDS011;35780;55.568;37.492;2023-04-15T07:33:06;11.77;;;2.38;;
49890;SDS011;35780;55.568;37.492;2023-04-15T07:35:33;34.33;;;3.50;;
49890;SDS011;35780;55.568;37.492;2023-04-15T07:38:00;5.32;;;2.10;;
49890;SDS011;35780;55.568;37.492;2023-04-15T07:40:27;3.67;;;1.65;;
49890;SDS011;35780;55.568;37.492;2023-04-15T07:42:57;6.70;;;2.22;;
49890;SDS011;35780;55.568;37.492;2023-04-15T07:45:24;11.38;;;2.20;;
49890;SDS011;35780;55.568;37.492;2023-04-15T07:47:50;8.52;;;2.20;;
49890;SDS011;35780;55.568;37.492;2023-04-15T07:50:17;5.53;;;2.10;;
49890;SDS011;35780;55.568;37.492;2023-04-15T07:52:45;6.30;;;2.22;;
49890;SDS011;35780;55.568;37.492;2023-04-15T07:55:11;5.20;;;1.80;;
49890;SDS011;35780;55.568;37.492;2023-04-15T07:57:38;8.27;;;2.33;;
49890;SDS011;35780;55.568;37.492;2023-04-15T08:00:05;8.85;;;1.95;;
49890;SDS011;35780;55.568;37.492;2023-04-15T08:02:32;10.48;;;2.53;;
49890;SDS011;35780;55.568;37.492;2023-04-15T08:05:00;8.73;;;3.03;;
49890;SDS011;35780;55.568;37.492;2023-04-15T08:07:29;6.47;;;2.55;;
49890;SDS011;35780;55.568;37.492;2023-04-15T08:09:56;11.60;;;2.65;;
49890;SDS011;35780;55.568;37.492;2023-04-15T08:12:23;4.05;;;2.10;;
49890;SDS011;35780;55.568;37.492;2023-04-15T08:14:50;5.13;;;2.30;;
49890;SDS011;35780;55.568;37.492;2023-04-15T08:17:17;6.30;;;1.75;;
49890;SDS011;35780;55.568;37.492;2023-04-15T08:19:44;6.13;;;1.80;;
49890;SDS011;35780;55.568;37.492;2023-04-15T08:22:11;7.90;;;2.38;;
49890;SDS011;35780;55.568;37.492;2023-04-15T08:24:38;10.38;;;2.17;;
49890;SDS011;35780;55.568;37.492;2023-04-15T08:27:04;4.85;;;2.15;;
49890;SDS011;35780;55.568;37.492;2023-04-15T08:29:31;4.32;;;2.00;;
49890;SDS011;35780;55.568;37.492;2023-04-15T08:31:58;8.30;;;2.13;;
49890;SDS011;35780;55.568;37.492;2023-04-15T08:34:29;7.03;;;2.00;;
49890;SDS011;35780;55.568;37.492;2023-04-15T08:36:56;3.08;;;1.52;;
49890;SDS011;35780;55.568;37.492;2023-04-15T08:39:22;5.53;;;2.03;;
49890;SDS011;35780;55.568;37.492;2023-04-15T08:41:59;5.28;;;2.55;;
49890;SDS011;35780;55.568;37.492;2023-04-15T08:44:32;5.70;;;2.58;;
49890;SDS011;35780;55.568;37.492;2023-04-15T08:49:27;7.10;;;2.15;;
49890;SDS011;35780;55.568;37.492;2023-04-15T08:51:55;4.72;;;2.25;;
49890;SDS011;35780;55.568;37.492;2023-04-15T08:54:24;6.68;;;2.13;;
49890;SDS011;35780;55.568;37.492;2023-04-15T08:56:52;9.23;;;2.38;;
49890;SDS011;35780;55.568;37.492;2023-04-15T08:59:20;5.55;;;2.95;;
49890;SDS011;35780;55.568;37.492;2023-04-15T09:01:48;8.82;;;2.30;;
49890;SDS011;35780;55.568;37.492;2023-04-15T09:04:16;8.38;;;2.60;;
49890;SDS011;35780;55.568;37.492;2023-04-15T09:06:43;8.02;;;2.25;;
49890;SDS011;35780;55.568;37.492;2023-04-15T09:09:11;5.65;;;3.03;;
49890;SDS011;35780;55.568;37.492;2023-04-15T09:11:38;8.43;;;2.47;;
49890;SDS011;35780;55.568;37.492;2023-04-15T09:14:05;7.00;;;2.58;;
49890;SDS011;35780;55.568;37.492;2023-04-15T09:16:54;10.32;;;2.80;;
49890;SDS011;35780;55.568;37.492;2023-04-15T09:19:28;5.25;;;2.50;;
49890;SDS011;35780;55.568;37.492;2023-04-15T09:21:57;10.93;;;2.13;;
49890;SDS011;35780;55.568;37.492;2023-04-15T09:24:25;5.50;;;2.40;;
49890;SDS011;35780;55.568;37.492;2023-04-15T09:27:01;9.23;;;2.97;;
49890;SDS011;35780;55.568;37.492;2023-04-15T09:29:28;7.70;;;2.50;;
49890;SDS011;35780;55.568;37.492;2023-04-15T09:31:55;10.05;;;2.97;;
49890;SDS011;35780;55.568;37.492;2023-04-15T09:34:22;6.05;;;2.70;;
49890;SDS011;35780;55.568;37.492;2023-04-15T09:37:01;9.85;;;2.88;;
49890;SDS011;35780;55.568;37.492;2023-04-15T09:39:43;5.88;;;2.50;;
49890;SDS011;35780;55.568;37.492;2023-04-15T09:42:12;6.88;;;3.03;;
49890;SDS011;35780;55.568;37.492;2023-04-15T09:44:39;6.10;;;2.85;;
49890;SDS011;35780;55.568;37.492;2023-04-15T09:47:06;7.20;;;2.10;;
49890;SDS011;35780;55.568;37.492;2023-04-15T09:49:32;5.43;;;2.63;;
49890;SDS011;35780;55.568;37.492;2023-04-15T09:52:00;7.47;;;2.20;;
49890;SDS011;35780;55.568;37.492;2023-04-15T09:54:31;4.60;;;2.53;;
49890;SDS011;35780;55.568;37.492;2023-04-15T09:57:05;6.30;;;2.92;;
49890;SDS011;35780;55.568;37.492;2023-04-15T09:59:33;6.32;;;3.20;;
49890;SDS011;35780;55.568;37.492;2023-04-15T10:01:59;9.60;;;3.50;;
49890;SDS011;35780;55.568;37.492;2023-04-15T10:04:29;7.78;;;3.90;;
49890;SDS011;35780;55.568;37.492;2023-04-15T10:06:58;5.60;;;2.47;;
49890;SDS011;35780;55.568;37.492;2023-04-15T10:09:25;6.57;;;3.00;;
49890;SDS011;35780;55.568;37.492;2023-04-15T10:11:52;7.68;;;3.47;;
49890;SDS011;35780;55.568;37.492;2023-04-15T10:14:19;11.07;;;3.38;;
49890;SDS011;35780;55.568;37.492;2023-04-15T10:16:47;9.25;;;3.90;;
49890;SDS011;35780;55.568;37.492;2023-04-15T10:19:14;11.55;;;4.50;;
49890;SDS011;35780;55.568;37.492;2023-04-15T10:21:41;5.05;;;2.33;;
49890;SDS011;35780;55.568;37.492;2023-04-15T10:24:10;11.32;;;3.55;;
49890;SDS011;35780;55.568;37.492;2023-04-15T10:26:37;13.35;;;3.17;;
49890;SDS011;35780;55.568;37.492;2023-04-15T10:29:04;10.25;;;3.10;;
49890;SDS011;35780;55.568;37.492;2023-04-15T10:31:31;5.55;;;2.70;;
49890;SDS011;35780;55.568;37.492;2023-04-15T10:33:58;6.63;;;2.97;;
49890;SDS011;35780;55.568;37.492;2023-04-15T10:36:29;9.43;;;3.42;;
49890;SDS011;35780;55.568;37.492;2023-04-15T10:38:56;4.85;;;2.70;;
49890;SDS011;35780;55.568;37.492;2023-04-15T10:41:26;7.53;;;3.25;;
49890;SDS011;35780;55.568;37.492;2023-04-15T10:44:02;6.97;;;3.45;;
49890;SDS011;35780;55.568;37.492;2023-04-15T10:49:11;6.93;;;2.60;;
49890;SDS011;35780;55.568;37.492;2023-04-15T10:51:40;8.40;;;3.25;;
49890;SDS011;35780;55.568;37.492;2023-04-15T10:54:31;10.73;;;3.55;;
49890;SDS011;35780;55.568;37.492;2023-04-15T10:59:37;12.25;;;4.45;;
49890;SDS011;35780;55.568;37.492;2023-04-15T11:02:05;11.00;;;3.73;;
49890;SDS011;35780;55.568;37.492;2023-04-15T11:04:51;8.07;;;3.65;;
49890;SDS011;35780;55.568;37.492;2023-04-15T11:07:35;6.85;;;3.13;;
49890;SDS011;35780;55.568;37.492;2023-04-15T11:10:03;3.40;;;1.98;;
49890;SDS011;35780;55.568;37.492;2023-04-15T11:12:51;5.10;;;2.53;;
49890;SDS011;35780;55.568;37.492;2023-04-15T11:15:29;8.95;;;2.90;;
49890;SDS011;35780;55.568;37.492;2023-04-15T11:18:07;6.68;;;2.50;;
49890;SDS011;35780;55.568;37.492;2023-04-15T11:20:45;7.10;;;2.28;;
49890;SDS011;35780;55.568;37.492;2023-04-15T11:23:34;4.53;;;2.00;;
49890;SDS011;35780;55.568;37.492;2023-04-15T11:26:07;9.95;;;3.65;;
49890;SDS011;35780;55.568;37.492;2023-04-15T11:28:37;6.50;;;3.35;;
49890;SDS011;35780;55.568;37.492;2023-04-15T11:31:16;7.32;;;2.67;;
49890;SDS011;35780;55.568;37.492;2023-04-15T11:33:44;5.32;;;2.42;;
49890;SDS011;35780;55.568;37.492;2023-04-15T11:36:31;12.23;;;3.65;;
49890;SDS011;35780;55.568;37.492;2023-04-15T11:38:58;7.57;;;2.40;;
49890;SDS011;35780;55.568;37.492;2023-04-15T11:41:25;13.63;;;2.50;;
49890;SDS011;35780;55.568;37.492;2023-04-15T11:43:52;7.15;;;2.15;;
49890;SDS011;35780;55.568;37.492;2023-04-15T11:46:19;6.18;;;2.67;;
49890;SDS011;35780;55.568;37.492;2023-04-15T11:48:47;4.43;;;2.00;;
49890;SDS011;35780;55.568;37.492;2023-04-15T11:51:14;6.28;;;3.28;;
49890;SDS011;35780;55.568;37.492;2023-04-15T11:53:44;6.57;;;2.80;;
49890;SDS011;35780;55.568;37.492;2023-04-15T11:56:20;6.95;;;3.42;;
49890;SDS011;35780;55.568;37.492;2023-04-15T11:58:48;9.30;;;2.42;;
49890;SDS011;35780;55.568;37.492;2023-04-15T12:01:17;5.78;;;2.63;;
49890;SDS011;35780;55.568;37.492;2023-04-15T12:03:46;12.13;;;2.95;;
49890;SDS011;35780;55.568;37.492;2023-04-15T12:06:19;5.90;;;2.83;;
49890;SDS011;35780;55.568;37.492;2023-04-15T12:13:54;12.43;;;5.43;;
49890;SDS011;35780;55.568;37.492;2023-04-15T12:16:27;8.90;;;3.47;;
49890;SDS011;35780;55.568;37.492;2023-04-15T12:18:53;2.00;;;1.13;;
49890;SDS011;35780;55.568;37.492;2023-04-15T12:21:21;3.17;;;1.55;;
49890;SDS011;35780;55.568;37.492;2023-04-15T12:23:52;5.43;;;2.40;;
49890;SDS011;35780;55.568;37.492;2023-04-15T12:26:25;9.80;;;2.67;;
49890;SDS011;35780;55.568;37.492;2023-04-15T12:29:01;9.98;;;3.30;;
49890;SDS011;35780;55.568;37.492;2023-04-15T12:31:27;8.02;;;2.58;;
49890;SDS011;35780;55.568;37.492;2023-04-15T12:34:12;7.63;;;2.70;;
49890;SDS011;35780;55.568;37.492;2023-04-15T12:36:38;5.10;;;2.30;;
49890;SDS011;35780;55.568;37.492;2023-04-15T12:39:04;7.55;;;2.80;;
49890;SDS011;35780;55.568;37.492;2023-04-15T12:41:30;5.30;;;2.20;;
49890;SDS011;35780;55.568;37.492;2023-04-15T12:43:57;7.45;;;2.90;;
49890;SDS011;35780;55.568;37.492;2023-04-15T12:46:23;6.38;;;2.15;;
49890;SDS011;35780;55.568;37.492;2023-04-15T12:49:08;5.55;;;2.30;;
49890;SDS011;35780;55.568;37.492;2023-04-15T12:51:33;14.55;;;3.25;;
49890;SDS011;35780;55.568;37.492;2023-04-15T12:53:59;5.28;;;2.45;;
49890;SDS011;35780;55.568;37.492;2023-04-15T12:56:25;7.75;;;2.80;;
49890;SDS011;35780;55.568;37.492;2023-04-15T12:58:51;4.50;;;2.75;;
49890;SDS011;35780;55.568;37.492;2023-04-15T13:01:16;6.20;;;2.67;;
49890;SDS011;35780;55.568;37.492;2023-04-15T13:03:42;9.48;;;3.30;;
49890;SDS011;35780;55.568;37.492;2023-04-15T13:06:08;8.40;;;3.17;;
49890;SDS011;35780;55.568;37.492;2023-04-15T13:08:34;6.20;;;2.63;;
49890;SDS011;35780;55.568;37.492;2023-04-15T13:10:59;5.50;;;2.63;;
49890;SDS011;35780;55.568;37.492;2023-04-15T13:13:25;6.25;;;3.78;;
49890;SDS011;35780;55.568;37.492;2023-04-15T13:15:51;5.50;;;2.83;;
49890;SDS011;35780;55.568;37.492;2023-04-15T13:18:17;5.00;;;2.85;;
49890;SDS011;35780;55.568;37.492;2023-04-15T13:20:42;10.73;;;3.13;;
49890;SDS011;35780;55.568;37.492;2023-04-15T13:23:08;7.40;;;2.67;;
49890;SDS011;35780;55.568;37.492;2023-04-15T13:25:34;5.88;;;2.75;;
49890;SDS011;35780;55.568;37.492;2023-04-15T13:28:00;8.80;;;2.35;;
49890;SDS011;35780;55.568;37.492;2023-04-15T13:30:26;6.93;;;3.20;;
49890;SDS011;35780;55.568;37.492;2023-04-15T13:32:52;8.75;;;3.67;;
49890;SDS011;35780;55.568;37.492;2023-04-15T13:35:19;7.78;;;2.75;;
49890;SDS011;35780;55.568;37.492;2023-04-15T13:37:46;10.85;;;3.72;;
49890;SDS011;35780;55.568;37.492;2023-04-15T13:40:12;12.35;;;3.72;;
49890;SDS011;35780;55.568;37.492;2023-04-15T13:42:37;6.30;;;2.78;;
49890;SDS011;35780;55.568;37.492;2023-04-15T13:45:03;10.90;;;3.50;;
49890;SDS011;35780;55.568;37.492;2023-04-15T13:47:30;6.72;;;3.03;;
49890;SDS011;35780;55.568;37.492;2023-04-15T13:49:56;8.90;;;3.90;;
49890;SDS011;35780;55.568;37.492;2023-04-15T13:52:22;10.32;;;2.53;;
49890;SDS011;35780;55.568;37.492;2023-04-15T13:54:48;8.32;;;3.10;;
49890;SDS011;35780;55.568;37.492;2023-04-15T13:57:13;5.35;;;2.90;;
49890;SDS011;35780;55.568;37.492;2023-04-15T13:59:58;6.32;;;2.28;;
49890;SDS011;35780;55.568;37.492;2023-04-15T14:02:23;8.73;;;2.97;;
49890;SDS011;35780;55.568;37.492;2023-04-15T14:04:49;11.32;;;2.95;;
49890;SDS011;35780;55.568;37.492;2023-04-15T14:07:14;10.02;;;2.88;;
49890;SDS011;35780;55.568;37.492;2023-04-15T14:09:40;6.20;;;3.00;;
49890;SDS011;35780;55.568;37.492;2023-04-15T14:12:07;6.85;;;2.75;;
49890;SDS011;35780;55.568;37.492;2023-04-15T14:14:33;6.72;;;3.20;;
49890;SDS011;35780;55.568;37.492;2023-04-15T14:16:59;10.10;;;3.17;;
49890;SDS011;35780;55.568;37.492;2023-04-15T14:19:24;6.18;;;2.15;;
49890;SDS011;35780;55.568;37.492;2023-04-15T14:21:50;6.55;;;2.50;;
49890;SDS011;35780;55.568;37.492;2023-04-15T14:24:16;5.30;;;2.85;;
49890;SDS011;35780;55.568;37.492;2023-04-15T14:26:42;6.78;;;2.50;;
49890;SDS011;35780;55.568;37.492;2023-04-15T14:29:08;6.63;;;2.75;;
49890;SDS011;35780;55.568;37.492;2023-04-15T14:31:34;6.60;;;2.63;;
49890;SDS011;35780;55.568;37.492;2023-04-15T14:34:00;6.55;;;2.53;;
49890;SDS011;35780;55.568;37.492;2023-04-15T14:36:26;4.07;;;2.15;;
49890;SDS011;35780;55.568;37.492;2023-04-15T14:38:51;4.90;;;2.00;;
49890;SDS011;35780;55.568;37.492;2023-04-15T14:41:17;10.07;;;2.50;;
49890;SDS011;35780;55.568;37.492;2023-04-15T14:43:43;8.52;;;2.30;;
49890;SDS011;35780;55.568;37.492;2023-04-15T14:46:09;5.43;;;2.25;;
49890;SDS011;35780;55.568;37.492;2023-04-15T14:48:35;6.85;;;2.50;;
49890;SDS011;35780;55.568;37.492;2023-04-15T14:51:00;5.88;;;2.42;;